Time;durP1;ratioP1;P1;durP2;ratioP2;P2;SDS_P1;SDS_P2;PMS_P1;PMS_P2;Temp;Humidity;BMP_temperature;BMP_pressure;BME280_temperature;BME280_humidity;BME280_pressure;Samples;Min_cycle;Max_cycle;Signal;HPM_P1;HPM_P2
2022/01/24 00:01:05;;;;;;;;;12.25;11.75;;;;;2.90;40.56;101714.50;146600;725;46016;-78
2022/01/24 00:03:58;;;;;;;;;15.50;14.00;;;;;2.92;40.47;101712.06;146605;586;45021;-78
2022/01/24 00:06:50;;;;;;;;;21.00;16.00;;;;;2.94;40.59;101719.16;146602;563;46012;-77
2022/01/24 00:09:43;;;;;;;;;16.50;13.50;;;;;2.96;40.74;101712.53;146605;563;46020;-77
2022/01/24 00:12:47;;;;;;;;;7.25;7.25;;;;;2.96;40.38;101712.53;146604;609;46010;-71
2022/01/24 00:28:30;;;;;;;;;15.50;14.75;;;;;3.06;40.35;101727.12;146606;580;46026;-77
2022/01/24 00:31:22;;;;;;;;;16.25;11.00;;;;;3.09;41.29;101729.09;146601;573;47016;-77
2022/01/24 00:34:15;;;;;;;;;17.50;14.00;;;;;3.12;40.82;101730.28;146604;564;46020;-77
2022/01/24 00:37:08;;;;;;;;;13.50;12.00;;;;;3.11;41.38;101725.00;146603;579;46010;-75
2022/01/24 00:40:00;;;;;;;;;7.50;7.00;;;;;3.05;42.90;101733.00;146604;573;46020;-74
2022/01/24 00:43:00;;;;;;;;;8.25;8.25;;;;;2.96;43.50;101725.34;146606;601;46010;-76
2022/01/24 00:46:05;;;;;;;;;8.25;8.25;;;;;2.91;42.68;101718.84;146607;603;46012;-74
2022/01/24 00:55:29;;;;;;;;;8.25;5.25;;;;;2.80;48.59;101756.97;146603;594;46016;-74
2022/01/24 00:58:21;;;;;;;;;12.00;10.00;;;;;2.75;48.06;101759.09;146607;630;46008;-74
2022/01/24 01:01:13;;;;;;;;;9.00;9.00;;;;;2.64;49.44;101755.47;146604;569;46913;-74
2022/01/24 01:04:05;;;;;;;;;10.75;9.50;;;;;2.59;47.69;101759.25;146605;586;46021;-76
2022/01/24 01:07:04;;;;;;;;;11.00;10.50;;;;;2.59;48.37;101768.59;146599;618;46029;-76
2022/01/24 01:19:27;;;;;;;;;18.00;13.00;;;;;2.75;49.17;101759.09;146602;570;46016;-73
2022/01/24 01:22:19;;;;;;;;;16.25;14.25;;;;;2.73;50.96;101774.28;146606;571;46008;-73
2022/01/24 01:25:12;;;;;;;;;17.00;14.25;;;;;2.65;53.84;101777.78;146604;582;46914;-73
2022/01/24 01:28:04;;;;;;;;;19.00;13.50;;;;;2.54;55.42;101774.12;146605;634;46008;-74
2022/01/24 01:31:01;;;;;;;;;17.00;13.25;;;;;2.44;56.97;101767.94;146601;648;46016;-71
2022/01/24 01:34:16;;;;;;;;;15.00;13.00;;;;;2.37;55.47;101766.44;146604;595;46008;-72
2022/01/24 01:37:38;;;;;;;;;14.00;12.50;;;;;2.29;54.55;101759.63;146604;577;46010;-72
2022/01/24 01:53:34;;;;;;;;;16.50;13.75;;;;;1.93;58.50;101737.28;146602;582;47010;-75
2022/01/24 01:56:26;;;;;;;;;15.00;13.75;;;;;1.87;58.88;101738.28;146601;607;46016;-76
2022/01/24 01:59:18;;;;;;;;;17.00;15.25;;;;;1.84;59.29;101728.66;146606;578;46008;-76
2022/01/24 02:02:11;;;;;;;;;14.00;12.50;;;;;1.83;60.72;101729.38;146601;583;46011;-74
2022/01/24 02:05:03;;;;;;;;;18.75;14.75;;;;;1.78;60.78;101736.59;146602;584;46020;-74
2022/01/24 02:07:56;;;;;;;;;17.25;14.50;;;;;1.74;58.59;101734.47;146603;642;46010;-73
2022/01/24 02:10:48;;;;;;;;;14.00;13.25;;;;;1.74;57.49;101752.37;146606;573;46020;-71
2022/01/24 02:13:41;;;;;;;;;38.00;30.00;;;;;1.76;55.86;101761.09;146604;586;46016;-71
2022/01/24 02:16:47;;;;;;;;;20.50;16.00;;;;;1.84;55.68;101759.34;146601;581;46020;-71
2022/01/24 02:20:09;;;;;;;;;12.50;10.00;;;;;1.92;56.33;101761.03;146604;569;46010;-71
2022/01/24 02:26:20;;;;;;;;;10.00;9.25;;;;;1.96;58.83;101763.16;146603;581;46892;-76
2022/01/24 02:29:24;;;;;;;;;11.75;8.25;;;;;1.88;58.77;101761.47;146605;565;46029;-75
2022/01/24 02:32:16;;;;;;;;;14.75;10.50;;;;;1.82;58.77;101766.84;146604;576;46016;-75
2022/01/24 02:35:09;;;;;;;;;8.50;7.75;;;;;1.79;59.87;101769.09;146602;610;46020;-75
2022/01/24 02:38:06;;;;;;;;;12.00;10.00;;;;;1.81;57.84;101771.81;146604;632;46010;-75
2022/01/24 02:53:47;;;;;;;;;16.75;16.25;;;;;1.94;60.25;101774.88;146604;634;47008;-74
2022/01/24 02:56:40;;;;;;;;;23.25;16.00;;;;;1.97;58.94;101769.19;146601;610;46016;-74
2022/01/24 02:59:33;;;;;;;;;32.25;30.75;;;;;2.00;57.39;101766.94;146603;589;46020;-73
2022/01/24 03:02:25;;;;;;;;;29.25;26.50;;;;;2.03;58.23;101767.25;146601;581;46017;-75
2022/01/24 03:05:17;;;;;;;;;14.25;11.75;;;;;2.08;57.46;101761.81;146602;710;46020;-76
2022/01/24 03:08:10;;;;;;;;;13.75;13.75;;;;;2.12;56.84;101765.63;146600;670;47016;-75
2022/01/24 03:11:02;;;;;;;;;21.75;18.00;;;;;2.16;56.19;101770.28;146604;599;46026;-75
2022/01/24 03:13:54;;;;;;;;;10.25;10.00;;;;;2.12;56.08;101777.47;146603;612;46016;-76
2022/01/24 03:16:46;;;;;;;;;18.75;17.25;;;;;2.11;57.46;101783.34;146603;628;47020;-77
2022/01/24 03:19:39;;;;;;;;;15.00;14.75;;;;;2.07;55.83;101774.47;146600;575;46010;-75
2022/01/24 03:22:31;;;;;;;;;20.50;14.25;;;;;2.06;57.46;101780.34;146607;620;46008;-76
2022/01/24 03:25:23;;;;;;;;;12.00;9.00;;;;;2.09;55.43;101796.00;146604;711;46010;-76
2022/01/24 03:28:16;;;;;;;;;12.25;11.00;;;;;2.07;57.24;101817.97;146605;578;46032;-75
2022/01/24 03:31:08;;;;;;;;;27.00;22.00;;;;;2.03;60.76;101824.44;146601;569;46010;-76
2022/01/24 03:34:00;;;;;;;;;29.25;23.50;;;;;1.97;58.51;101823.78;146602;590;46020;-78
2022/01/24 03:36:53;;;;;;;;;36.00;32.50;;;;;1.91;60.15;101804.34;146607;592;45936;-73
2022/01/24 03:39:45;;;;;;;;;24.00;19.25;;;;;1.87;58.31;101809.87;146608;631;46021;-75
2022/01/24 03:42:38;;;;;;;;;12.50;10.75;;;;;1.87;59.43;101805.69;146602;600;46913;-74
2022/01/24 03:45:43;;;;;;;;;14.75;9.75;;;;;1.90;61.48;101792.28;146605;595;46021;-73
2022/01/24 03:48:44;;;;;;;;;11.00;8.00;;;;;1.91;59.03;101789.00;146606;604;46016;-76
2022/01/24 03:51:36;;;;;;;;;16.50;12.50;;;;;1.91;59.50;101779.69;146608;577;46020;-75
2022/01/24 03:54:28;;;;;;;;;11.00;9.75;;;;;1.91;59.17;101777.13;146603;612;46010;-76
2022/01/24 03:57:24;;;;;;;;;19.75;17.50;;;;;1.96;59.30;101781.06;146604;626;46020;-73
2022/01/24 04:00:17;;;;;;;;;36.75;30.00;;;;;1.95;58.78;101784.34;146603;634;46010;-73
2022/01/24 04:03:10;;;;;;;;;25.00;25.00;;;;;1.89;58.73;101788.84;146602;703;46008;-73
2022/01/24 04:06:02;;;;;;;;;33.00;25.25;;;;;1.87;58.88;101790.34;146602;586;46016;-71
2022/01/24 04:08:55;;;;;;;;;34.50;28.50;;;;;1.88;57.44;101791.25;146607;564;45590;-73
2022/01/24 04:11:52;;;;;;;;;27.00;26.00;;;;;1.92;58.48;101804.50;146603;573;47010;-72
2022/01/24 04:18:13;;;;;;;;;29.00;26.75;;;;;1.93;56.76;101798.66;146604;709;46010;-72
2022/01/24 04:24:30;;;;;;;;;15.75;14.25;;;;;2.13;54.56;101793.00;146600;739;47010;-72
2022/01/24 04:27:22;;;;;;;;;11.25;10.25;;;;;2.22;54.45;101806.72;146607;604;46008;-70
2022/01/24 04:30:15;;;;;;;;;31.75;27.00;;;;;2.25;55.06;101804.47;146604;569;45040;-72
2022/01/24 04:33:07;;;;;;;;;17.00;12.75;;;;;2.23;57.17;101811.09;146605;596;46008;-73
2022/01/24 04:35:59;;;;;;;;;11.25;10.75;;;;;2.07;59.57;101820.53;146605;574;46010;-73
2022/01/24 04:38:52;;;;;;;;;13.75;10.25;;;;;1.96;57.54;101811.75;146603;576;45579;-72
2022/01/24 04:41:48;;;;;;;;;19.50;16.25;;;;;1.93;58.20;101818.19;146604;588;46010;-72
2022/01/24 04:44:55;;;;;;;;;9.75;9.25;;;;;1.96;57.26;101827.09;146604;574;47013;-73
2022/01/24 04:50:27;;;;;;;;;11.75;9.75;;;;;1.95;57.09;101820.16;146605;616;45913;-74
2022/01/24 04:51:08;;;;;;;;;12.25;10.00;;;;;1.79;63.28;101827.91;146606;722;46020;-75
2022/01/24 04:54:36;;;;;;;;;11.00;9.25;;;;;1.58;63.86;101830.78;146604;597;46010;-75
2022/01/24 04:57:35;;;;;;;;;10.50;9.50;;;;;0.08;58.43;101600.47;146605;592;46008;-74
2022/01/24 05:00:27;;;;;;;;;10.50;9.00;;;;;1.36;61.86;101823.41;146601;565;46017;-75
2022/01/24 05:03:19;;;;;;;;;14.00;11.75;;;;;1.37;59.10;101830.37;146604;563;45020;-76
2022/01/24 05:06:12;;;;;;;;;21.50;17.75;;;;;1.41;59.19;101830.69;146605;634;45914;-75
2022/01/24 05:09:05;;;;;;;;;10.50;10.00;;;;;1.43;62.43;101821.50;146606;778;46021;-75
2022/01/24 05:12:04;;;;;;;;;13.25;9.25;;;;;1.49;59.73;101819.59;146600;680;46016;-75
2022/01/24 05:21:52;;;;;;;;;15.25;14.75;;;;;1.53;57.12;101822.66;146606;618;46020;-72
2022/01/24 05:24:43;;;;;;;;;12.75;12.75;;;;;1.61;58.13;101826.91;146603;570;46016;-71
2022/01/24 05:27:35;;;;;;;;;24.00;22.00;;;;;1.70;56.72;101816.72;146605;661;46012;-70
2022/01/24 05:30:28;;;;;;;;;19.00;15.75;;;;;1.77;57.24;101824.28;146601;691;46024;-70
2022/01/24 05:33:20;;;;;;;;;13.00;12.25;;;;;1.80;56.92;101822.03;146601;576;47012;-74
2022/01/24 05:36:13;;;;;;;;;58.50;42.00;;;;;1.84;56.40;101825.84;146599;588;47010;-73
2022/01/24 05:39:05;;;;;;;;;27.25;22.50;;;;;1.87;57.16;101821.03;146607;577;46008;-72
2022/01/24 05:41:58;;;;;;;;;28.50;25.25;;;;;1.88;57.01;101829.63;146603;586;47010;-71
2022/01/24 05:44:50;;;;;;;;;33.25;27.25;;;;;1.88;57.93;101822.84;146605;570;46021;-71
2022/01/24 05:47:42;;;;;;;;;25.25;21.50;;;;;1.90;56.91;101834.16;146601;621;46016;-70
2022/01/24 05:50:34;;;;;;;;;25.25;24.50;;;;;1.93;56.88;101837.03;146604;649;46020;-72
2022/01/24 05:53:27;;;;;;;;;21.25;21.00;;;;;1.98;55.76;101842.59;146601;618;46017;-71
2022/01/24 05:56:19;;;;;;;;;27.00;21.75;;;;;1.94;58.67;101843.03;146608;584;45026;-71
2022/01/24 05:59:11;;;;;;;;;40.25;36.50;;;;;1.88;61.35;101844.97;146603;564;46017;-72
2022/01/24 06:02:03;;;;;;;;;32.00;23.75;;;;;1.77;59.42;101844.72;146603;597;46020;-70
2022/01/24 06:04:56;;;;;;;;;27.00;24.50;;;;;1.74;59.31;101841.84;146604;749;46028;-73
2022/01/24 06:07:49;;;;;;;;;18.75;17.00;;;;;1.77;58.88;101843.84;146606;621;46020;-72
2022/01/24 06:10:41;;;;;;;;;18.75;16.50;;;;;1.83;58.62;101842.81;146603;595;46016;-72
2022/01/24 06:13:34;;;;;;;;;22.00;20.00;;;;;1.85;57.17;101837.88;146606;571;46029;-70
2022/01/24 06:16:26;;;;;;;;;23.75;22.50;;;;;1.87;56.11;101838.00;146602;585;46016;-72
2022/01/24 06:19:18;;;;;;;;;37.00;31.75;;;;;1.91;55.16;101835.06;146604;620;46020;-71
2022/01/24 06:22:10;;;;;;;;;20.75;17.50;;;;;1.90;56.37;101833.22;146601;668;47010;-69
2022/01/24 06:25:03;;;;;;;;;26.50;23.25;;;;;1.91;55.16;101835.06;146607;760;45026;-71
2022/01/24 06:27:56;;;;;;;;;28.25;25.25;;;;;1.94;54.54;101838.81;146602;606;47011;-69
2022/01/24 06:30:48;;;;;;;;;27.75;24.75;;;;;1.98;54.67;101829.81;146602;644;46021;-72
2022/01/24 06:33:40;;;;;;;;;46.50;37.50;;;;;2.02;54.95;101842.16;146602;603;46016;-70
2022/01/24 06:36:32;;;;;;;;;28.25;22.50;;;;;2.06;55.79;101842.66;146605;622;45021;-71
2022/01/24 06:39:25;;;;;;;;;26.75;20.25;;;;;2.17;55.21;101846.28;146602;574;46010;-70
2022/01/24 06:42:22;;;;;;;;;18.75;13.00;;;;;2.39;56.91;101839.16;146599;614;46008;-69
2022/01/24 06:45:15;;;;;;;;;28.25;23.00;;;;;2.61;55.23;101856.69;146596;576;46913;-72
2022/01/24 06:48:08;;;;;;;;;20.25;16.00;;;;;2.64;52.49;101854.41;146600;741;46020;-72
2022/01/24 06:51:00;;;;;;;;;30.50;24.25;;;;;2.63;53.19;101868.88;146594;625;47017;-72
2022/01/24 06:53:51;;;;;;;;;32.75;27.00;;;;;2.63;53.72;101878.22;146600;570;46008;-71
2022/01/24 06:56:44;;;;;;;;;28.50;22.00;;;;;2.60;52.71;101872.81;146599;693;46016;-72
2022/01/24 06:59:36;;;;;;;;;31.25;25.25;;;;;2.56;56.18;101871.59;146598;767;47008;-73
2022/01/24 07:02:29;;;;;;;;;40.50;33.75;;;;;2.56;55.32;101870.69;146595;644;46016;-72
2022/01/24 07:05:21;;;;;;;;;33.00;28.75;;;;;2.57;55.49;101880.16;146597;697;47009;-73
2022/01/24 07:08:13;;;;;;;;;21.25;19.50;;;;;2.57;53.74;101870.84;146595;657;47010;-73
2022/01/24 07:11:06;;;;;;;;;43.75;36.75;;;;;2.58;55.15;101898.22;146600;600;46020;-72
2022/01/24 07:13:58;;;;;;;;;26.50;25.00;;;;;2.57;54.99;101909.22;146597;622;47010;-72
2022/01/24 07:20:09;;;;;;;;;18.75;16.75;;;;;2.34;54.49;101905.97;146594;570;47011;-73
2022/01/24 07:23:01;;;;;;;;;18.50;16.75;;;;;1.06;55.37;101687.37;146600;593;46008;-72
2022/01/24 07:25:53;;;;;;;;;16.75;16.75;;;;;2.21;58.88;101893.56;146596;679;46913;-71
2022/01/24 07:28:45;;;;;;;;;23.75;21.50;;;;;2.15;59.00;101887.81;146600;626;46009;-72
2022/01/24 07:31:38;;;;;;;;;21.25;19.75;;;;;2.12;58.14;101890.06;146598;586;46016;-72
2022/01/24 07:34:30;;;;;;;;;18.00;16.25;;;;;2.13;57.49;101886.78;146601;696;46009;-72
2022/01/24 07:37:23;;;;;;;;;29.00;21.25;;;;;2.15;61.22;101877.59;146594;616;47913;-72
2022/01/24 07:40:16;;;;;;;;;44.25;36.25;;;;;2.18;57.41;101906.03;146602;600;46008;-71
2022/01/24 07:43:12;;;;;;;;;17.00;14.25;;;;;2.16;56.65;101916.12;146600;710;47011;-72
2022/01/24 07:46:05;;;;;;;;;37.00;30.50;;;;;2.10;57.64;101923.19;146599;600;46919;-73
2022/01/24 07:48:57;;;;;;;;;14.75;13.25;;;;;1.97;61.16;101936.34;146603;576;46010;-71
2022/01/24 07:51:49;;;;;;;;;25.00;24.00;;;;;1.82;58.57;101927.06;146603;631;46021;-71
2022/01/24 07:54:41;;;;;;;;;53.75;39.50;;;;;1.72;59.51;101930.31;146604;610;46010;-72
2022/01/24 07:57:34;;;;;;;;;48.75;38.25;;;;;1.69;61.18;101932.53;146602;567;46020;-71
2022/01/24 08:00:26;;;;;;;;;28.50;24.50;;;;;1.65;61.53;101924.38;146601;584;46016;-71
2022/01/24 08:03:19;;;;;;;;;42.75;38.00;;;;;1.62;62.94;101937.75;146606;579;46008;-72
2022/01/24 08:06:11;;;;;;;;;23.50;19.00;;;;;1.59;63.08;101951.13;146599;612;46016;-71
2022/01/24 08:09:05;;;;;;;;;32.00;27.25;;;;;1.55;62.77;101942.94;146604;564;46020;-73
2022/01/24 08:11:57;;;;;;;;;21.00;19.25;;;;;1.56;62.32;101944.78;146601;673;46017;-68
2022/01/24 08:14:50;;;;;;;;;21.00;20.75;;;;;1.56;61.62;101935.44;146600;581;46023;-70
2022/01/24 08:17:42;;;;;;;;;38.50;34.25;;;;;1.59;61.94;101943.44;146601;630;46016;-72
2022/01/24 08:20:34;;;;;;;;;35.00;30.00;;;;;1.60;63.72;101944.34;146605;575;46020;-71
2022/01/24 08:23:27;;;;;;;;;44.50;36.75;;;;;1.62;63.93;101946.31;146605;676;46010;-69
2022/01/24 08:26:19;;;;;;;;;38.50;32.00;;;;;1.57;67.84;101932.16;146604;582;45021;-71
2022/01/24 08:29:13;;;;;;;;;47.50;40.00;;;;;1.53;67.83;101934.22;146605;571;46010;-71
2022/01/24 08:32:05;;;;;;;;;41.25;35.00;;;;;1.42;70.49;101932.16;146606;586;46008;-71
2022/01/24 08:34:58;;;;;;;;;34.25;31.50;;;;;1.35;70.51;101936.62;146602;602;46010;-70
2022/01/24 08:37:51;;;;;;;;;28.50;26.25;;;;;1.32;70.92;101936.28;146603;738;47020;-68
2022/01/24 08:40:46;;;;;;;;;53.75;43.25;;;;;1.28;70.98;101930.69;146599;625;47013;-72
2022/01/24 08:44:00;;;;;;;;;45.75;39.50;;;;;1.32;69.73;101940.50;146604;625;46020;-71
2022/01/24 08:46:52;;;;;;;;;44.00;36.50;;;;;1.34;67.76;101945.03;146602;582;47010;-72
2022/01/24 08:49:44;;;;;;;;;34.00;28.25;;;;;1.36;70.46;101938.41;146604;649;46021;-66
2022/01/24 08:52:37;;;;;;;;;50.75;41.25;;;;;1.43;67.45;101955.31;146602;624;46913;-72
2022/01/24 08:55:32;;;;;;;;;56.75;44.75;;;;;1.48;65.06;101977.16;146602;623;46020;-73
2022/01/24 08:58:24;;;;;;;;;44.00;36.00;;;;;1.55;65.40;101965.94;146602;573;46016;-72
2022/01/24 09:01:16;;;;;;;;;56.25;46.50;;;;;1.57;70.52;101960.25;146604;664;46020;-72
2022/01/24 09:04:09;;;;;;;;;58.00;47.00;;;;;1.52;70.56;101956.28;146601;570;46017;-72
2022/01/24 09:07:04;;;;;;;;;58.75;47.25;;;;;1.51;67.51;101968.94;146606;631;46020;-73
2022/01/24 09:09:56;;;;;;;;;55.50;40.75;;;;;1.49;70.14;101958.53;146603;564;46010;-73
2022/01/24 09:12:49;;;;;;;;;53.25;43.25;;;;;1.49;69.04;101966.19;146606;598;45021;-73
2022/01/24 09:15:41;;;;;;;;;52.50;40.50;;;;;1.49;71.45;101952.50;146601;572;46012;-73
2022/01/24 09:18:34;;;;;;;;;74.00;56.33;;;;;1.46;71.94;101945.41;146606;643;45024;-74
2022/01/24 09:21:28;;;;;;;;;58.00;47.75;;;;;1.44;71.64;101943.47;146604;596;46030;-74
2022/01/24 09:24:21;;;;;;;;;54.00;43.25;;;;;1.41;70.40;101948.25;146602;643;46020;-73
2022/01/24 09:27:15;;;;;;;;;37.00;32.50;;;;;1.43;70.28;101949.31;146600;620;46010;-74
2022/01/24 09:30:08;;;;;;;;;45.50;37.75;;;;;0.34;69.32;101729.13;146606;576;46020;-73
2022/01/24 09:33:00;;;;;;;;;45.00;39.25;;;;;1.62;69.98;101937.75;146603;591;46017;-73
2022/01/24 09:35:58;;;;;;;;;52.00;41.25;;;;;1.72;68.79;101916.62;146603;572;47008;-73
2022/01/24 09:38:50;;;;;;;;;30.75;25.75;;;;;1.79;68.81;101919.97;146602;635;46012;-73
2022/01/24 09:41:43;;;;;;;;;50.50;41.00;;;;;1.84;68.91;101910.25;146604;617;46021;-72
2022/01/24 09:44:36;;;;;;;;;51.25;40.25;;;;;1.91;68.73;101910.12;146601;648;47010;-72
2022/01/24 09:47:28;;;;;;;;;51.75;42.50;;;;;1.96;66.37;101892.69;146605;593;46008;-73
2022/01/24 09:50:21;;;;;;;;;38.50;35.50;;;;;2.00;68.14;101895.72;146601;565;47010;-73
2022/01/24 09:53:14;;;;;;;;;42.50;37.75;;;;;2.05;63.81;101891.09;146606;577;46008;-73
2022/01/24 09:56:07;;;;;;;;;65.50;50.75;;;;;2.16;63.29;101895.66;146599;586;46016;-72
2022/01/24 09:58:59;;;;;;;;;41.75;34.25;;;;;2.27;63.49;101918.16;146605;593;46020;-73
2022/01/24 10:01:52;;;;;;;;;38.75;32.50;;;;;2.30;62.89;101907.31;146603;564;46011;-73
2022/01/24 10:04:44;;;;;;;;;35.75;32.50;;;;;2.31;64.04;101914.25;146603;581;46008;-73
2022/01/24 10:07:41;;;;;;;;;35.00;28.25;;;;;2.26;63.33;101906.09;146602;569;46010;-73
2022/01/24 10:10:47;;;;;;;;;57.50;46.25;;;;;2.22;63.18;101901.41;146607;658;46008;-72
2022/01/24 10:16:55;;;;;;;;;68.50;54.50;;;;;2.24;60.38;101911.78;146601;574;46020;-73
2022/01/24 10:19:47;;;;;;;;;57.00;43.25;;;;;2.37;58.59;101924.19;146601;566;46913;-72
2022/01/24 10:22:39;;;;;;;;;24.25;20.25;;;;;2.50;58.49;101917.06;146603;564;46008;-73
2022/01/24 10:25:32;;;;;;;;;36.25;31.00;;;;;2.63;58.83;101908.97;146601;708;46010;-72
2022/01/24 10:28:34;;;;;;;;;54.00;42.75;;;;;2.81;58.22;101907.38;146604;573;46020;-73
2022/01/24 10:31:29;;;;;;;;;31.25;26.25;;;;;2.89;56.36;101894.56;146604;743;46012;-73
2022/01/24 10:34:34;;;;;;;;;44.50;38.75;;;;;2.85;58.08;101897.56;146607;638;46020;-73
2022/01/24 10:37:27;;;;;;;;;36.50;31.00;;;;;2.74;57.91;101909.31;146603;633;46016;-72
2022/01/24 10:44:09;;;;;;;;;62.00;49.00;;;;;2.57;55.39;101896.44;146596;569;46010;-72
2022/01/24 10:47:28;;;;;;;;;34.75;31.75;;;;;2.53;57.10;101902.00;146599;570;47008;-72
2022/01/24 10:50:32;;;;;;;;;38.25;34.00;;;;;2.52;57.68;101897.59;146595;611;47010;-71
2022/01/24 10:53:24;;;;;;;;;56.75;41.25;;;;;2.59;57.74;101887.25;146600;594;46021;-72
2022/01/24 10:56:44;;;;;;;;;81.00;64.33;;;;;1.67;58.44;101711.59;146597;607;46017;-73
2022/01/24 10:59:39;;;;;;;;;54.50;43.50;;;;;2.85;57.68;101892.44;146606;635;46020;-71
2022/01/24 11:02:41;;;;;;;;;52.25;43.00;;;;;2.94;56.84;101885.69;146596;583;46034;-72
2022/01/24 11:05:43;;;;;;;;;29.00;26.00;;;;;3.01;57.40;101882.97;146602;574;47008;-71
2022/01/24 11:08:35;;;;;;;;;21.75;19.50;;;;;3.08;55.48;101887.03;146597;615;46913;-72
2022/01/24 11:11:28;;;;;;;;;63.75;50.00;;;;;3.15;56.08;101899.72;146601;579;46021;-74
2022/01/24 11:14:21;;;;;;;;;56.50;44.50;;;;;3.15;55.06;101898.84;146597;573;46016;-71
2022/01/24 11:17:20;;;;;;;;;52.75;43.00;;;;;3.11;56.59;101900.16;146599;564;46026;-71
2022/01/24 11:20:17;;;;;;;;;46.50;39.00;;;;;2.94;59.50;101903.63;146597;614;46010;-70
2022/01/24 11:23:11;;;;;;;;;41.75;36.25;;;;;2.82;56.47;101902.38;146599;737;46018;-71
2022/01/24 11:26:05;;;;;;;;;57.50;44.50;;;;;2.76;56.24;101894.97;146597;615;46015;-70
2022/01/24 11:28:58;;;;;;;;;61.75;48.25;;;;;2.74;60.18;101900.69;146600;593;46008;-71
2022/01/24 11:32:36;;;;;;;;;47.50;38.75;;;;;1.35;58.71;101693.84;146596;582;47016;-74
2022/01/24 11:35:53;;;;;;;;;66.75;50.50;;;;;1.33;58.78;101687.66;146602;605;45020;-72
2022/01/24 11:38:49;;;;;;;;;56.00;45.00;;;;;2.67;61.34;101901.72;146597;582;47011;-71
2022/01/24 11:41:43;;;;;;;;;71.33;56.33;;;;;2.58;60.24;101893.12;146604;570;46020;-71
2022/01/24 11:44:58;;;;;;;;;70.50;53.75;;;;;2.56;59.92;101932.16;146604;724;46010;-73
2022/01/24 11:47:51;;;;;;;;;74.67;56.33;;;;;2.58;60.31;101921.28;146608;564;45051;-72
2022/01/24 11:50:43;;;;;;;;;78.00;59.00;;;;;2.62;61.89;101919.97;146602;571;46016;-71
2022/01/24 11:53:36;;;;;;;;;35.50;31.25;;;;;2.53;61.15;101935.28;146602;573;46008;-72
2022/01/24 11:56:32;;;;;;;;;20.50;19.00;;;;;2.46;60.01;101930.25;146602;598;46016;-71
2022/01/24 11:59:27;;;;;;;;;40.25;36.25;;;;;2.44;60.54;101931.78;146604;638;46020;-71
2022/01/24 12:02:28;;;;;;;;;22.75;21.00;;;;;2.46;60.25;101922.59;146601;642;46012;-72
2022/01/24 12:05:31;;;;;;;;;33.25;28.50;;;;;2.52;59.79;101916.47;146605;632;46010;-71
2022/01/24 12:09:05;;;;;;;;;63.75;49.25;;;;;1.38;58.44;101719.72;146601;577;46010;-71
2022/01/24 12:11:57;;;;;;;;;69.00;53.25;;;;;2.67;61.16;101932.47;146606;618;46020;-72
2022/01/24 12:14:50;;;;;;;;;53.25;41.50;;;;;2.71;60.47;101938.78;146604;598;46012;-71
2022/01/24 12:17:57;;;;;;;;;61.25;49.00;;;;;2.71;60.11;101919.25;146605;645;46029;-71
2022/01/24 12:20:51;;;;;;;;;44.75;40.00;;;;;2.63;63.00;101922.66;146601;582;47010;-71
2022/01/24 12:23:46;;;;;;;;;77.00;57.75;;;;;2.56;61.19;101922.81;146605;570;46021;-71
2022/01/24 12:26:53;;;;;;;;;34.50;30.50;;;;;2.53;61.46;101917.38;146606;599;45042;-72
2022/01/24 12:29:46;;;;;;;;;74.25;56.75;;;;;2.48;59.45;101900.63;146604;601;46008;-71
2022/01/24 12:32:38;;;;;;;;;50.00;40.25;;;;;2.40;61.93;101902.41;146602;584;46914;-73
2022/01/24 12:35:32;;;;;;;;;40.75;37.00;;;;;2.31;59.70;101897.25;146603;713;46020;-71
2022/01/24 12:38:24;;;;;;;;;64.75;53.00;;;;;2.21;61.37;101909.84;146602;608;47012;-72
2022/01/24 12:41:37;;;;;;;;;76.33;56.33;;;;;2.17;63.32;101907.69;146605;570;46020;-71
2022/01/24 12:47:50;;;;;;;;;61.50;49.50;;;;;2.20;63.67;101904.56;146608;585;45021;-71
2022/01/24 12:50:47;;;;;;;;;46.50;40.00;;;;;2.14;65.22;101909.03;146604;622;46016;-71
2022/01/24 12:53:42;;;;;;;;;30.25;28.75;;;;;2.05;63.74;101893.63;146603;569;46021;-72
2022/01/24 12:56:37;;;;;;;;;51.50;44.25;;;;;1.97;67.31;101889.41;146601;573;46016;-71
2022/01/24 12:59:29;;;;;;;;;46.50;40.50;;;;;1.89;66.10;101900.47;146606;575;46008;-70
2022/01/24 13:02:28;;;;;;;;;57.50;46.25;;;;;0.61;63.07;101687.81;146602;576;46012;-70
2022/01/24 13:05:23;;;;;;;;;52.00;41.75;;;;;1.73;67.17;101898.88;146604;622;46008;-71
2022/01/24 13:08:19;;;;;;;;;64.25;48.75;;;;;1.74;66.20;101890.44;146603;613;46017;-71
2022/01/24 13:11:14;;;;;;;;;22.50;16.25;;;;;1.80;65.28;101883.41;146606;582;46020;-72
2022/01/24 13:14:16;;;;;;;;;71.00;52.67;;;;;1.84;67.27;101882.09;146602;585;46029;-72
2022/01/24 13:23:40;;;;;;;;;56.75;43.75;;;;;0.50;66.71;101674.66;146603;622;47006;-71
2022/01/24 13:26:32;;;;;;;;;68.75;53.25;;;;;1.72;67.09;101907.28;146602;591;46016;-73
2022/01/24 13:29:24;;;;;;;;;60.50;47.75;;;;;1.72;67.26;101904.75;146606;569;46008;-71
2022/01/24 13:32:17;;;;;;;;;74.33;59.67;;;;;1.75;62.64;101879.50;146603;633;46017;-72
2022/01/24 13:35:29;;;;;;;;;68.33;55.00;;;;;1.81;64.50;101897.13;146608;581;47008;-71
2022/01/24 13:38:33;;;;;;;;;82.67;63.00;;;;;1.87;64.69;101895.22;146601;647;47011;-71
2022/01/24 13:41:28;;;;;;;;;19.25;16.00;;;;;1.96;58.60;101933.59;146610;631;46012;-72
2022/01/24 13:44:20;;;;;;;;;28.50;23.75;;;;;2.03;60.07;101902.81;146595;626;47010;-71
2022/01/24 13:47:12;;;;;;;;;11.75;9.75;;;;;2.08;58.01;101915.31;146600;565;46021;-71
2022/01/24 13:50:08;;;;;;;;;36.50;33.00;;;;;2.06;60.01;101914.28;146599;629;46010;-72
2022/01/24 13:53:00;;;;;;;;;29.75;22.25;;;;;2.17;58.39;101888.88;146598;601;46020;-71
2022/01/24 13:55:52;;;;;;;;;39.00;34.25;;;;;2.23;58.25;101897.19;146597;591;46016;-72
2022/01/24 13:58:44;;;;;;;;;52.50;41.50;;;;;2.29;60.23;101908.97;146601;624;46008;-72
2022/01/24 14:01:38;;;;;;;;;21.75;20.00;;;;;2.33;56.05;101922.09;146596;638;47038;-71
2022/01/24 14:04:39;;;;;;;;;27.50;26.25;;;;;2.18;59.95;101942.81;146600;767;46008;-70
2022/01/24 14:07:45;;;;;;;;;12.50;11.25;;;;;2.13;56.74;101927.72;146597;566;46017;-72
2022/01/24 14:10:38;;;;;;;;;13.75;10.75;;;;;2.05;58.86;101948.25;146599;654;46008;-72
2022/01/24 14:13:34;;;;;;;;;20.75;16.00;;;;;2.11;58.08;101954.78;146597;589;46016;-72
2022/01/24 14:20:03;;;;;;;;;42.00;35.50;;;;;2.04;57.75;101922.53;146596;589;46016;-71
2022/01/24 14:22:58;;;;;;;;;74.33;57.00;;;;;2.03;60.19;101920.75;146601;650;46021;-69
2022/01/24 14:25:50;;;;;;;;;87.67;66.67;;;;;1.99;60.30;101922.03;146599;608;46016;-70
2022/01/24 14:28:42;;;;;;;;;53.25;43.00;;;;;2.04;59.46;101926.00;146607;588;46020;-70
2022/01/24 14:31:35;;;;;;;;;56.50;44.50;;;;;2.05;59.03;101916.66;146596;665;46010;-70
2022/01/24 14:34:27;;;;;;;;;59.25;46.50;;;;;2.07;58.11;101922.84;146600;635;46008;-72
2022/01/24 14:37:19;;;;;;;;;53.00;43.00;;;;;2.06;58.70;101911.72;146596;564;47010;-69
2022/01/24 14:40:13;;;;;;;;;45.75;39.00;;;;;2.06;58.39;101926.16;146599;597;46020;-69
2022/01/24 14:46:26;;;;;;;;;62.00;48.50;;;;;2.10;58.85;101909.47;146604;567;47012;-70
2022/01/24 14:49:25;;;;;;;;;56.75;44.25;;;;;2.08;57.38;101909.31;146599;571;46025;-71
2022/01/24 14:52:20;;;;;;;;;47.75;39.25;;;;;2.14;56.55;101909.94;146600;736;46021;-70
2022/01/24 14:55:13;;;;;;;;;50.00;41.00;;;;;2.13;54.42;101907.25;146602;602;46017;-70
2022/01/24 14:58:05;;;;;;;;;34.00;30.50;;;;;2.14;53.03;101927.84;146606;579;46008;-70
2022/01/24 15:00:57;;;;;;;;;19.25;18.25;;;;;2.17;53.84;101910.25;146605;634;46010;-72
2022/01/24 15:03:50;;;;;;;;;31.00;25.50;;;;;2.20;51.78;101910.56;146602;573;47919;-71